Stations météo

réclame
Mon MeteoGroup
Porto Colom, Espagne (8309): Température de l'air & dewpoint: 11.01.2019 01:00:00 - 17.01.2019 01:00:00 (CET)Porto Colom, Espagne (8309): Vitesse du vent & gusts: 11.01.2019 01:00:00 - 17.01.2019 01:00:00 (CET)Porto Colom, Espagne (8309): Direction du vent: 11.01.2019 01:00:00 - 17.01.2019 01:00:00 (CET)Porto Colom, Espagne (8309): reduced air pressure: 11.01.2019 01:00:00 - 17.01.2019 01:00:00 (CET)Porto Colom, Espagne (8309): Ensoleillement: 11.01.2019 01:00:00 - 17.01.2019 01:00:00 (CET)Porto Colom, Espagne (8309): Quantités de précipitations: 11.01.2019 01:00:00 - 17.01.2019 01:00:00 (CET)
Date & Time tt [°C] td [°C] ff [km/h] ff [knt] fx [km/h] fx [knt] dd ppp [hPa] sd [min] rr [mm]
17.01.2019 01:00:00 13,8 10,2 15 8 23 12 S 1017,1 0 -
17.01.2019 00:00:00 13,8 9,3 20 11 26 14 S 1017,3 0 0,0
16.01.2019 23:00:00 13,9 9,3 20 11 25 13 S 1017,7 0 0,0
16.01.2019 22:00:00 13,8 8,7 17 9 23 12 SSW 1017,8 0 0,0
16.01.2019 21:00:00 13,7 8,4 15 8 19 11 SSW 1017,8 0 0,0
16.01.2019 20:00:00 13,6 7,4 14 8 23 13 SSW 1018,0 0 0,0
16.01.2019 19:00:00 13,4 7,8 13 7 21 11 SW 1017,9 0 -
16.01.2019 18:00:00 13,6 7,4 16 9 27 15 SW 1017,7 0 0,0
16.01.2019 17:00:00 13,8 6,8 20 11 29 16 SW 1018,0 1 0,0
16.01.2019 16:00:00 14,1 8,3 20 11 29 16 SSW 1018,0 0 0,0
16.01.2019 15:00:00 14,2 7,4 19 10 28 15 SW 1018,2 0 0,0
16.01.2019 14:00:00 14,3 8,3 24 13 31 17 SSW 1018,5 0 0,0
16.01.2019 13:00:00 14,4 7,8 24 13 34 18 SSW 1019,1 0 -
16.01.2019 12:00:00 14,4 8,1 23 12 32 17 SW 1020,0 0 0,0
16.01.2019 11:00:00 14,1 8,1 25 14 33 18 SW 1020,4 5 0,0
16.01.2019 10:00:00 14,0 9,0 24 13 34 18 SSW 1020,3 1 0,0
16.01.2019 09:00:00 13,5 8,5 22 12 32 17 SSW 1019,9 0 0,0
16.01.2019 08:00:00 12,3 8,0 11 6 18 10 WSW 1020,0 0 0,0
16.01.2019 07:00:00 12,1 8,0 10 5 15 8 WSW 1019,9 0 -
16.01.2019 06:00:00 11,8 7,8 8 4 18 10 W 1019,9 0 0,0
16.01.2019 05:00:00 11,8 7,8 10 5 16 8 W 1020,2 0 0,0
16.01.2019 04:00:00 11,4 8,7 7 4 14 8 W 1020,5 0 0,0
16.01.2019 03:00:00 11,1 8,5 9 5 17 9 W 1020,8 0 0,0
16.01.2019 02:00:00 9,1 7,4 6 4 11 6 WNW 1020,8 0 0,0
16.01.2019 01:00:00 9,3 7,4 8 5 12 7 NW 1020,9 0 -
16.01.2019 00:00:00 9,8 8,1 8 5 13 7 WNW 1021,4 0 0,0
15.01.2019 23:00:00 9,2 7,1 9 5 12 7 NW 1021,5 0 0,0
15.01.2019 22:00:00 9,8 7,7 8 4 13 7 NW 1021,4 0 0,0
15.01.2019 21:00:00 11,2 8,1 10 5 16 9 W 1021,1 0 0,0
15.01.2019 20:00:00 11,7 8,1 11 6 17 9 W 1021,2 0 0,0
15.01.2019 19:00:00 12,1 8,4 10 6 17 9 W 1021,0 0 -
15.01.2019 18:00:00 13,0 9,0 9 5 26 14 WSW 1020,9 21 0,0
15.01.2019 17:00:00 14,4 9,4 18 10 24 13 SW 1020,8 60 0,0
15.01.2019 16:00:00 14,4 9,0 16 9 20 11 SSW 1020,9 38 0,0
15.01.2019 15:00:00 15,8 9,4 13 7 18 10 SSW 1020,9 60 0,0
15.01.2019 14:00:00 15,9 9,6 10 5 14 8 S 1021,0 60 0,0
15.01.2019 13:00:00 15,7 9,2 6 3 11 6 SE 1021,5 60 -
15.01.2019 12:00:00 15,1 9,2 5 3 9 5 E 1022,0 60 0,0
15.01.2019 11:00:00 14,6 8,9 4 2 9 5 E 1022,6 60 0,0
15.01.2019 10:00:00 12,1 9,7 6 3 10 5 N 1022,1 41 0,0
15.01.2019 09:00:00 9,4 7,8 8 4 11 6 N 1021,5 0 0,0
15.01.2019 08:00:00 8,4 7,0 9 5 11 6 N 1021,1 0 0,0
15.01.2019 07:00:00 8,9 7,6 9 5 10 5 N 1020,8 0 -
15.01.2019 06:00:00 8,4 7,1 8 4 10 5 N 1020,2 0 0,0
15.01.2019 05:00:00 8,2 6,8 9 5 10 6 N 1020,0 0 0,0
15.01.2019 04:00:00 8,7 7,4 8 4 10 6 N 1020,3 0 0,0
15.01.2019 03:00:00 9,5 8,3 9 5 11 6 N 1020,4 0 0,0
15.01.2019 02:00:00 9,0 7,6 9 5 13 7 N 1020,1 0 0,0
15.01.2019 01:00:00 8,9 7,1 9 5 12 6 N 1020,1 0 -
15.01.2019 00:00:00 9,4 7,6 9 5 12 7 N 1020,0 0 0,0
14.01.2019 23:00:00 9,3 7,6 9 5 12 7 N 1019,7 0 0,0
14.01.2019 22:00:00 10,2 8,0 9 5 17 9 N 1019,5 0 0,0
14.01.2019 21:00:00 13,2 9,3 12 7 22 12 E 1019,4 0 0,0
14.01.2019 20:00:00 13,6 9,4 11 6 18 10 E 1018,9 0 0,0
14.01.2019 19:00:00 13,6 9,0 10 6 19 10 ESE 1018,5 0 -
14.01.2019 18:00:00 14,0 10,0 9 5 20 11 S 1017,8 25 0,0
14.01.2019 17:00:00 14,9 10,0 9 5 21 12 SSE 1017,7 60 0,0
14.01.2019 16:00:00 15,6 9,7 10 5 23 13 SSE 1017,1 60 0,0
14.01.2019 15:00:00 16,1 9,3 10 5 22 12 SE 1017,1 60 0,0
14.01.2019 14:00:00 16,2 10,5 8 4 19 10 SSE 1016,9 60 0,0
14.01.2019 13:00:00 - - - - - - - - - -
14.01.2019 12:00:00 15,9 9,3 11 6 14 7 S 1017,6 60 0,0
14.01.2019 11:00:00 14,9 9,0 9 5 13 7 ENE 1018,0 60 0,0
14.01.2019 10:00:00 14,1 7,8 5 3 25 13 NE 1017,2 60 0,0
14.01.2019 09:00:00 12,5 7,6 10 6 23 12 W 1016,4 34 0,0
14.01.2019 08:00:00 11,4 7,7 5 3 22 12 NNW 1016,7 0 0,0
14.01.2019 07:00:00 11,2 8,4 6 4 22 12 WNW 1016,9 0 -
14.01.2019 06:00:00 10,8 8,0 8 4 19 10 WNW 1016,8 0 0,0
14.01.2019 05:00:00 10,7 7,0 8 4 19 10 NW 1017,4 0 0,0
14.01.2019 04:00:00 10,9 6,4 7 4 22 12 WNW 1017,8 0 0,0
14.01.2019 03:00:00 10,8 6,1 11 6 18 10 NNW 1018,5 0 0,0
14.01.2019 02:00:00 10,8 6,7 9 5 16 9 W 1018,7 0 0,0
14.01.2019 01:00:00 11,0 6,5 6 3 21 11 NW 1019,7 0 -
14.01.2019 00:00:00 10,7 6,7 10 6 20 11 WNW 1019,7 0 0,0
13.01.2019 23:00:00 10,1 5,6 9 5 18 10 NW 1020,6 0 0,0
13.01.2019 22:00:00 10,0 5,9 4 2 14 8 NW 1020,9 0 0,0
13.01.2019 21:00:00 10,6 6,4 7 4 21 11 WNW 1021,1 0 0,0
13.01.2019 20:00:00 11,2 6,1 9 5 17 9 WNW 1021,3 0 0,0
13.01.2019 19:00:00 11,2 5,5 8 4 26 14 WNW 1021,3 0 -
13.01.2019 18:00:00 12,2 6,2 14 8 28 15 W 1020,8 23 0,0
13.01.2019 17:00:00 14,2 6,2 11 6 31 17 WNW 1020,9 60 0,0
13.01.2019 16:00:00 15,3 5,8 9 5 24 13 WNW 1021,3 60 0,0
13.01.2019 15:00:00 16,1 5,6 12 6 24 13 W 1021,6 60 0,0
13.01.2019 14:00:00 15,6 7,6 10 6 15 8 S 1022,3 60 0,0
13.01.2019 13:00:00 15,8 7,8 4 2 19 11 S 1023,5 60 -
13.01.2019 12:00:00 14,0 6,1 8 4 20 11 NW 1024,5 60 0,0
13.01.2019 11:00:00 12,9 6,2 7 4 26 14 NW 1024,3 60 0,0
13.01.2019 10:00:00 11,2 7,0 11 6 20 11 W 1023,7 60 0,0
13.01.2019 09:00:00 8,2 5,0 5 3 11 6 NW 1023,8 28 0,0
13.01.2019 08:00:00 6,9 4,3 6 3 10 5 N 1024,2 0 0,0
13.01.2019 07:00:00 7,5 5,1 6 4 13 7 N 1024,1 0 -
13.01.2019 06:00:00 9,6 5,9 5 3 18 10 WNW 1024,0 0 0,0
13.01.2019 05:00:00 9,8 5,6 12 6 21 11 W 1023,9 0 0,0
13.01.2019 04:00:00 9,6 5,1 10 5 18 10 WNW 1024,7 0 0,0
13.01.2019 03:00:00 9,6 5,0 9 5 18 10 WNW 1025,3 0 0,0
13.01.2019 02:00:00 9,6 4,5 9 5 24 13 NW 1025,2 0 0,0
13.01.2019 01:00:00 9,6 5,0 10 5 19 10 WNW 1025,3 0 -
13.01.2019 00:00:00 9,6 4,6 9 5 20 11 WNW 1026,1 0 0,0
12.01.2019 23:00:00 9,1 4,1 9 5 18 10 NNW 1026,9 0 0,0
12.01.2019 22:00:00 8,8 4,3 10 6 18 10 NW 1027,0 0 0,0
12.01.2019 21:00:00 9,6 4,1 10 6 16 9 W 1026,8 0 0,0
12.01.2019 20:00:00 9,2 3,8 6 3 22 12 WNW 1026,6 0 0,0
12.01.2019 19:00:00 9,8 3,6 8 4 21 11 WNW 1026,6 0 -
12.01.2019 18:00:00 10,7 3,4 9 5 24 13 WNW 1026,3 23 0,0
12.01.2019 17:00:00 12,5 4,6 8 5 21 11 NW 1025,9 33 0,0
12.01.2019 16:00:00 12,7 3,6 6 4 21 11 W 1025,6 39 0,0
12.01.2019 15:00:00 13,5 3,6 8 4 10 6 SSW 1025,6 13 0,0
12.01.2019 14:00:00 12,7 2,9 4 2 21 11 N 1026,2 0 0,0
12.01.2019 13:00:00 13,1 2,9 9 5 27 15 NNW 1026,6 31 -
12.01.2019 12:00:00 11,6 3,4 10 5 22 12 NW 1027,2 1 0,0
12.01.2019 11:00:00 10,8 3,0 11 6 21 12 NW 1027,5 0 0,0
12.01.2019 10:00:00 9,4 1,3 9 5 19 10 NW 1027,2 14 0,0
12.01.2019 09:00:00 7,9 0,4 7 4 11 6 NNW 1026,6 0 0,0
12.01.2019 08:00:00 7,2 1,7 5 3 9 5 WNW 1026,4 0 0,0
12.01.2019 07:00:00 7,1 0,9 8 4 17 9 N 1026,5 0 -
12.01.2019 06:00:00 7,3 -0,7 11 6 16 9 N 1026,3 0 0,0
12.01.2019 05:00:00 7,3 0,4 10 5 16 9 NNW 1026,0 0 0,0
12.01.2019 04:00:00 6,9 2,5 9 5 29 15 WNW 1026,2 0 0,2
12.01.2019 03:00:00 7,2 1,9 6 3 13 7 NNW 1026,4 0 0,0
12.01.2019 02:00:00 6,9 0,0 3 2 10 5 NW 1026,2 0 0,0
12.01.2019 01:00:00 6,6 -0,3 6 3 13 7 NNW 1026,1 0 -
12.01.2019 00:00:00 5,3 -1,2 8 5 18 10 N 1026,0 0 0,0
11.01.2019 23:00:00 6,7 -0,5 14 7 25 13 N 1026,0 0 0,0
11.01.2019 22:00:00 6,3 0,2 10 6 21 12 NW 1025,5 0 0,0
11.01.2019 21:00:00 5,9 1,5 10 5 17 9 NW 1025,2 0 0,0
11.01.2019 20:00:00 5,9 1,9 5 3 11 6 NNW 1024,9 0 0,0
11.01.2019 19:00:00 6,2 0,9 4 2 23 12 NW 1024,4 0 -
11.01.2019 18:00:00 7,5 0,9 18 10 34 18 NNE 1024,0 16 0,0
11.01.2019 17:00:00 8,8 -0,3 11 6 28 15 N 1023,6 23 0,0
11.01.2019 16:00:00 9,1 -0,3 15 8 32 17 NNE 1023,2 27 0,0
11.01.2019 15:00:00 9,1 -0,5 16 9 35 19 NNE 1022,9 6 0,0
11.01.2019 14:00:00 9,4 -1,0 16 9 37 20 NNE 1022,7 33 0,0
11.01.2019 13:00:00 9,2 -1,2 20 11 36 19 NNE 1022,9 13 -
11.01.2019 12:00:00 9,1 -0,3 15 8 34 18 NNE 1023,2 5 0,0
11.01.2019 11:00:00 9,2 0,2 16 9 39 21 NNE 1023,2 24 0,0
11.01.2019 10:00:00 8,3 0,2 12 6 22 12 N 1022,4 30 0,0
11.01.2019 09:00:00 6,4 0,6 8 4 16 8 N 1021,7 0 0,0
11.01.2019 08:00:00 6,3 0,2 11 6 21 12 N 1020,9 0 0,0
11.01.2019 07:00:00 6,7 0,4 11 6 21 12 N 1020,6 0 -
11.01.2019 06:00:00 6,8 -0,3 13 7 21 11 N 1020,0 0 0,0
11.01.2019 05:00:00 6,3 -0,3 13 7 32 17 N 1019,8 0 0,0
11.01.2019 04:00:00 7,0 -0,3 14 7 30 16 NNE 1019,9 0 0,0
11.01.2019 03:00:00 6,6 -0,3 13 7 26 14 N 1019,9 0 0,0
11.01.2019 02:00:00 7,2 0,0 16 8 29 16 N 1019,3 0 0,0
11.01.2019 01:00:00 7,5 0,2 16 8 26 14 NNE 1019,1 0 -

tt = Température de l'air
td = dewpoint
ff = Vitesse du vent
fx = gusts
dd = Direction du vent
ppp = reduced air pressure
sd = Ensoleillement
rr = Quantités de précipitations

stations d'obs. à proximité